Station Historical Data
 
Daily Summary for August 17, 2018 Units:  English    Metric   Both
Next Day »
Daily Weekly Monthly Yearly Custom
  Current: High: Low: Average:
Temperature: 65.1 °F 65.1 °F 51.3 °F 55.6 °F
Dew Point: 53.9 °F 54.2 °F 47.8 °F 50.1 °F
Humidity: 67% 89% 67% 82%
Wind Speed: 0mph 6.2mph 0mph 0.4mph
Wind Gust: 0mph 0mph - -
WindCalm - - SSW
Pressure: 30.25 in 30.25 in 30.14 in -
Precipitation: 0 in      
Historical Graphs
 
 
Tabular Data for August 17, 2018
Time Temperature Dew Point Pressure Wind Wind Speed Wind Gust Humidity Rainfall Rate (Hourly)
00:04 59 °F 52.1 °F 30.14 in Calm     78% 0 in
00:09 58.6 °F 51.8 °F 30.14 in Calm     78% 0 in
00:14 58.6 °F 52.1 °F 30.14 in Calm     79% 0 in
00:19 58.5 °F 52 °F 30.14 in Calm     79% 0 in
00:24 58.1 °F 51.6 °F 30.14 in Calm     79% 0 in
00:29 57.9 °F 51.4 °F 30.14 in Calm     79% 0 in
00:34 57.6 °F 51.4 °F 30.14 in Calm     80% 0 in
00:39 57.4 °F 51.3 °F 30.14 in Calm     80% 0 in
00:44 57 °F 51.2 °F 30.14 in Calm     81% 0 in
00:49 56.8 °F 51.1 °F 30.15 in Calm     81% 0 in
00:54 56.5 °F 50.7 °F 30.15 in Calm     81% 0 in
00:59 56.3 °F 50.9 °F 30.15 in Calm     82% 0 in
01:04 55.9 °F 50.5 °F 30.15 in Calm     82% 0 in
01:09 55.8 °F 50.7 °F 30.15 in Calm     83% 0 in
01:14 55.6 °F 50.5 °F 30.15 in Calm     83% 0 in
01:19 55.4 °F 50.6 °F 30.15 in Calm     84% 0 in
01:24 55.2 °F 50.5 °F 30.15 in Calm     84% 0 in
01:29 55.2 °F 50.5 °F 30.15 in Calm     84% 0 in
01:34 55 °F 50.3 °F 30.15 in Calm     84% 0 in
01:39 55 °F 50.3 °F 30.15 in Calm     84% 0 in
01:44 55 °F 50.6 °F 30.15 in Calm     85% 0 in
01:49 54.9 °F 50.4 °F 30.16 in Calm     85% 0 in
01:54 54.9 °F 50.4 °F 30.16 in Calm     85% 0 in
01:59 54.7 °F 49.9 °F 30.16 in Calm     84% 0 in
02:04 54.7 °F 49.9 °F 30.16 in Calm     84% 0 in
02:09 54.7 °F 49.9 °F 30.16 in Calm     84% 0 in
02:14 54.7 °F 49.6 °F 30.16 in Calm     83% 0 in
02:19 54.7 °F 49.6 °F 30.16 in West 2.3 mph   83% 0 in
02:24 54.7 °F 49.3 °F 30.16 in Calm     82% 0 in
02:29 54.7 °F 49.3 °F 30.16 in Calm     82% 0 in
02:34 54.7 °F 49 °F 30.16 in Calm     81% 0 in
02:39 54.7 °F 49 °F 30.16 in ESE 1.2 mph   81% 0 in
02:44 54.7 °F 49 °F 30.16 in Calm     81% 0 in
02:49 54.7 °F 49 °F 30.17 in Calm     81% 0 in
02:54 54.3 °F 48.6 °F 30.17 in Calm     81% 0 in
02:59 54.3 °F 48.6 °F 30.17 in Calm     81% 0 in
03:04 54.1 °F 48.4 °F 30.17 in Calm     81% 0 in
03:09 54 °F 48.3 °F 30.17 in Calm     81% 0 in
03:14 54 °F 48.6 °F 30.17 in Calm     82% 0 in
03:19 53.8 °F 48.4 °F 30.18 in Calm     82% 0 in
03:24 53.6 °F 48.2 °F 30.18 in Calm     82% 0 in
03:29 53.4 °F 48.4 °F 30.18 in Calm     83% 0 in
03:34 53.2 °F 48.2 °F 30.18 in Calm     83% 0 in
03:39 53.1 °F 48.4 °F 30.18 in Calm     84% 0 in
03:44 52.9 °F 48.2 °F 30.18 in Calm     84% 0 in
03:49 52.7 °F 48 °F 30.18 in Calm     84% 0 in
03:54 52.5 °F 48.1 °F 30.18 in Calm     85% 0 in
03:59 52.3 °F 48 °F 30.18 in Calm     85% 0 in
04:04 52.3 °F 48 °F 30.18 in Calm     85% 0 in
04:09 52.2 °F 48.1 °F 30.18 in Calm     86% 0 in
04:14 52.2 °F 48.1 °F 30.18 in Calm     86% 0 in
04:19 52 °F 47.9 °F 30.19 in Calm     86% 0 in
04:24 52 °F 47.9 °F 30.19 in Calm     86% 0 in
04:29 52 °F 48.2 °F 30.19 in Calm     87% 0 in
04:34 51.8 °F 48.1 °F 30.19 in Calm     87% 0 in
04:39 51.8 °F 48.1 °F 30.19 in Calm     87% 0 in
04:44 51.6 °F 47.9 °F 30.19 in Calm     87% 0 in
04:49 51.6 °F 47.9 °F 30.19 in Calm     87% 0 in
04:54 51.6 °F 48.2 °F 30.19 in Calm     88% 0 in
04:59 51.6 °F 48.2 °F 30.19 in Calm     88% 0 in
05:04 51.6 °F 48.2 °F 30.19 in Calm     88% 0 in
05:09 51.6 °F 48.2 °F 30.19 in Calm     88% 0 in
05:14 51.6 °F 48.2 °F 30.19 in Calm     88% 0 in
05:19 51.6 °F 48.2 °F 30.20 in Calm     88% 0 in
05:24 51.6 °F 48.2 °F 30.20 in Calm     88% 0 in
05:29 51.4 °F 48 °F 30.20 in Calm     88% 0 in
05:34 51.4 °F 48 °F 30.20 in Calm     88% 0 in
05:39 51.3 °F 47.8 °F 30.20 in Calm     88% 0 in
05:44 51.3 °F 48.1 °F 30.20 in Calm     89% 0 in
05:49 51.3 °F 48.1 °F 30.20 in Calm     89% 0 in
05:54 51.4 °F 48.3 °F 30.20 in Calm     89% 0 in
05:59 51.4 °F 48.3 °F 30.20 in Calm     89% 0 in
06:04 51.6 °F 48.5 °F 30.21 in WSW 3.5 mph   89% 0 in
06:09 51.6 °F 48.5 °F 30.21 in SSW 6.2 mph   89% 0 in
06:14 52 °F 48.8 °F 30.21 in Calm     89% 0 in
06:19 52 °F 48.5 °F 30.21 in Calm     88% 0 in
06:24 52.2 °F 48.7 °F 30.21 in Calm     88% 0 in
06:29 52.3 °F 48.9 °F 30.21 in Calm     88% 0 in
06:34 52.5 °F 49.1 °F 30.21 in Calm     88% 0 in
06:39 52.5 °F 48.8 °F 30.21 in SSE 3.5 mph   87% 0 in
06:44 52.7 °F 48.9 °F 30.21 in Calm     87% 0 in
06:49 52.9 °F 49.1 °F 30.22 in Calm     87% 0 in
06:54 52.9 °F 49.1 °F 30.22 in Calm     87% 0 in
06:59 53.1 °F 49.3 °F 30.22 in Calm     87% 0 in
07:04 53.2 °F 49.5 °F 30.22 in Calm     87% 0 in
07:09 53.2 °F 49.2 °F 30.22 in SE 2.4 mph   86% 0 in
07:14 53.4 °F 49.3 °F 30.22 in Calm     86% 0 in
07:19 53.4 °F 49.3 °F 30.23 in Calm     86% 0 in
07:24 53.6 °F 49.5 °F 30.23 in Calm     86% 0 in
07:29 53.8 °F 49.7 °F 30.23 in Calm     86% 0 in
07:34 53.8 °F 49.7 °F 30.23 in Calm     86% 0 in
07:39 54 °F 49.6 °F 30.23 in SW 2.3 mph   85% 0 in
07:44 54 °F 49.6 °F 30.23 in Calm     85% 0 in
07:49 54 °F 49.6 °F 30.23 in Calm     85% 0 in
07:54 54.1 °F 49.7 °F 30.23 in Calm     85% 0 in
07:59 54.1 °F 49.7 °F 30.23 in Calm     85% 0 in
08:04 54.3 °F 49.9 °F 30.24 in Calm     85% 0 in
08:09 54.5 °F 50.1 °F 30.24 in Calm     85% 0 in
08:14 54.7 °F 49.9 °F 30.24 in SE 2.4 mph   84% 0 in
08:19 54.9 °F 50.1 °F 30.24 in Calm     84% 0 in
08:24 54.9 °F 50.1 °F 30.24 in SE 4.7 mph   84% 0 in
08:29 55 °F 50 °F 30.24 in WNW 4.6 mph   83% 0 in
08:34 55.2 °F 50.1 °F 30.24 in Calm     83% 0 in
08:39 55.2 °F 50.1 °F 30.24 in Calm     83% 0 in
08:44 55.6 °F 50.5 °F 30.24 in North 2.3 mph   83% 0 in
08:49 55.6 °F 50.5 °F 30.24 in Calm     83% 0 in
08:54 55.9 °F 50.9 °F 30.24 in Calm     83% 0 in
08:59 56.3 °F 50.5 °F 30.24 in Calm     81% 0 in
09:04 56.5 °F 50.7 °F 30.24 in Calm     81% 0 in
09:09 56.8 °F 51.1 °F 30.24 in Calm     81% 0 in
09:14 57 °F 51.2 °F 30.24 in Calm     81% 0 in
09:19 57.4 °F 50.9 °F 30.24 in Calm     79% 0 in
09:24 57.6 °F 51.4 °F 30.24 in Calm     80% 0 in
09:29 57.7 °F 51.3 °F 30.24 in NNE 1.4 mph   79% 0 in
09:34 58.1 °F 51.6 °F 30.24 in Calm     79% 0 in
09:39 58.3 °F 51.4 °F 30.24 in Calm     78% 0 in
09:44 58.6 °F 51.8 °F 30.24 in Calm     78% 0 in
09:49 58.8 °F 51.6 °F 30.25 in ESE 1.8 mph   77% 0 in
09:54 59 °F 51.4 °F 30.25 in Calm     76% 0 in
09:59 59.5 °F 52 °F 30.25 in WSW 2.3 mph   76% 0 in
10:04 59.7 °F 51.8 °F 30.25 in NW 1.2 mph   75% 0 in
10:09 60.1 °F 52.5 °F 30.25 in SSE 1.2 mph   76% 0 in
10:14 60.4 °F 52.5 °F 30.25 in South 1.2 mph   75% 0 in
10:19 61 °F 53 °F 30.25 in Calm     75% 0 in
10:24 61.3 °F 52.6 °F 30.25 in SSE 1.8 mph   73% 0 in
10:29 61.5 °F 52.8 °F 30.25 in South 5.8 mph   73% 0 in
10:34 61.5 °F 52.8 °F 30.25 in South 1.8 mph   73% 0 in
10:39 61.7 °F 52.2 °F 30.25 in Calm     71% 0 in
10:44 61.9 °F 52.4 °F 30.25 in SE 2 mph   71% 0 in
10:49 62.1 °F 52.5 °F 30.25 in Calm     71% 0 in
10:54 62.4 °F 52.9 °F 30.25 in Calm     71% 0 in
10:59 62.6 °F 53.1 °F 30.25 in Calm     71% 0 in
11:04 62.8 °F 53.2 °F 30.25 in Calm     71% 0 in
11:09 63 °F 53 °F 30.25 in Calm     70% 0 in
11:14 63 °F 52.6 °F 30.25 in Calm     69% 0 in
11:19 63.3 °F 53 °F 30.25 in Calm     69% 0 in
11:24 63.3 °F 53 °F 30.25 in Calm     69% 0 in
11:29 63.3 °F 52.6 °F 30.25 in Calm     68% 0 in
11:34 63.5 °F 53.1 °F 30.25 in Calm     69% 0 in
11:39 64 °F 53.7 °F 30.25 in Calm     69% 0 in
11:44 64.6 °F 54.2 °F 30.25 in NW 1.2 mph   69% 0 in
11:49 65.1 °F 53.9 °F 30.25 in Calm     67% 0 in
Amateur Radio Station WA6MVG